sensor_id;sensor_type;location;lat;lon;timestamp;P1;durP1;ratioP1;P2;durP2;ratioP2
12110;SDS011;6119;52.372;8.990;2024-02-14T00:00:05;2.20;;;2.00;;
12110;SDS011;6119;52.372;8.990;2024-02-14T00:02:54;3.53;;;1.60;;
12110;SDS011;6119;52.372;8.990;2024-02-14T00:05:43;6.43;;;1.97;;
12110;SDS011;6119;52.372;8.990;2024-02-14T00:08:29;2.63;;;1.80;;
12110;SDS011;6119;52.372;8.990;2024-02-14T00:11:16;4.67;;;2.20;;
12110;SDS011;6119;52.372;8.990;2024-02-14T00:14:03;3.73;;;1.80;;
12110;SDS011;6119;52.372;8.990;2024-02-14T00:16:52;2.87;;;1.87;;
12110;SDS011;6119;52.372;8.990;2024-02-14T00:19:38;4.00;;;1.90;;
12110;SDS011;6119;52.372;8.990;2024-02-14T00:22:27;2.40;;;1.93;;
12110;SDS011;6119;52.372;8.990;2024-02-14T00:25:13;3.10;;;2.20;;
12110;SDS011;6119;52.372;8.990;2024-02-14T00:28:04;5.30;;;1.90;;
12110;SDS011;6119;52.372;8.990;2024-02-14T00:30:51;3.30;;;1.80;;
12110;SDS011;6119;52.372;8.990;2024-02-14T00:33:38;2.70;;;1.80;;
12110;SDS011;6119;52.372;8.990;2024-02-14T00:36:26;4.83;;;2.00;;
12110;SDS011;6119;52.372;8.990;2024-02-14T00:39:15;3.90;;;1.70;;
12110;SDS011;6119;52.372;8.990;2024-02-14T00:42:01;3.53;;;2.03;;
12110;SDS011;6119;52.372;8.990;2024-02-14T00:44:48;2.50;;;1.80;;
12110;SDS011;6119;52.372;8.990;2024-02-14T00:47:34;2.47;;;1.90;;
12110;SDS011;6119;52.372;8.990;2024-02-14T00:50:22;3.50;;;1.90;;
12110;SDS011;6119;52.372;8.990;2024-02-14T00:53:08;5.03;;;2.10;;
12110;SDS011;6119;52.372;8.990;2024-02-14T00:55:56;2.00;;;1.83;;
12110;SDS011;6119;52.372;8.990;2024-02-14T00:58:43;2.37;;;1.90;;
12110;SDS011;6119;52.372;8.990;2024-02-14T01:01:30;3.33;;;1.93;;
12110;SDS011;6119;52.372;8.990;2024-02-14T01:04:16;2.03;;;1.83;;
12110;SDS011;6119;52.372;8.990;2024-02-14T01:07:03;2.77;;;1.90;;
12110;SDS011;6119;52.372;8.990;2024-02-14T01:09:50;4.80;;;2.07;;
12110;SDS011;6119;52.372;8.990;2024-02-14T01:12:38;3.30;;;2.43;;
12110;SDS011;6119;52.372;8.990;2024-02-14T01:15:25;2.80;;;2.00;;
12110;SDS011;6119;52.372;8.990;2024-02-14T01:18:12;4.13;;;1.80;;
12110;SDS011;6119;52.372;8.990;2024-02-14T01:20:59;4.60;;;1.90;;
12110;SDS011;6119;52.372;8.990;2024-02-14T01:23:46;3.80;;;1.80;;
12110;SDS011;6119;52.372;8.990;2024-02-14T01:26:33;3.93;;;2.43;;
12110;SDS011;6119;52.372;8.990;2024-02-14T01:29:21;3.27;;;2.20;;
12110;SDS011;6119;52.372;8.990;2024-02-14T01:32:09;2.37;;;1.90;;
12110;SDS011;6119;52.372;8.990;2024-02-14T01:34:56;5.33;;;2.10;;
12110;SDS011;6119;52.372;8.990;2024-02-14T01:37:42;4.37;;;2.20;;
12110;SDS011;6119;52.372;8.990;2024-02-14T01:40:30;3.70;;;2.17;;
12110;SDS011;6119;52.372;8.990;2024-02-14T01:43:17;4.73;;;2.50;;
12110;SDS011;6119;52.372;8.990;2024-02-14T01:46:07;4.07;;;2.20;;
12110;SDS011;6119;52.372;8.990;2024-02-14T01:48:53;3.00;;;1.87;;
12110;SDS011;6119;52.372;8.990;2024-02-14T01:51:42;2.73;;;1.80;;
12110;SDS011;6119;52.372;8.990;2024-02-14T01:54:30;4.63;;;2.40;;
12110;SDS011;6119;52.372;8.990;2024-02-14T01:57:18;3.90;;;2.20;;
12110;SDS011;6119;52.372;8.990;2024-02-14T02:00:05;3.53;;;2.10;;
12110;SDS011;6119;52.372;8.990;2024-02-14T02:02:55;4.73;;;2.50;;
12110;SDS011;6119;52.372;8.990;2024-02-14T02:05:42;5.43;;;2.40;;
12110;SDS011;6119;52.372;8.990;2024-02-14T02:08:29;2.63;;;2.00;;
12110;SDS011;6119;52.372;8.990;2024-02-14T02:11:17;3.57;;;2.40;;
12110;SDS011;6119;52.372;8.990;2024-02-14T02:14:03;3.17;;;2.30;;
12110;SDS011;6119;52.372;8.990;2024-02-14T02:16:50;4.70;;;2.30;;
12110;SDS011;6119;52.372;8.990;2024-02-14T02:19:38;3.20;;;2.20;;
12110;SDS011;6119;52.372;8.990;2024-02-14T02:22:25;4.03;;;2.40;;
12110;SDS011;6119;52.372;8.990;2024-02-14T02:25:18;4.13;;;2.47;;
12110;SDS011;6119;52.372;8.990;2024-02-14T02:28:09;2.37;;;1.80;;
12110;SDS011;6119;52.372;8.990;2024-02-14T02:30:56;3.60;;;2.27;;
12110;SDS011;6119;52.372;8.990;2024-02-14T02:33:43;3.37;;;2.10;;
12110;SDS011;6119;52.372;8.990;2024-02-14T02:36:30;2.53;;;1.70;;
12110;SDS011;6119;52.372;8.990;2024-02-14T02:39:17;6.73;;;2.23;;
12110;SDS011;6119;52.372;8.990;2024-02-14T02:42:05;6.37;;;2.03;;
12110;SDS011;6119;52.372;8.990;2024-02-14T02:44:51;4.90;;;2.43;;
12110;SDS011;6119;52.372;8.990;2024-02-14T02:47:38;5.37;;;2.07;;
12110;SDS011;6119;52.372;8.990;2024-02-14T02:50:25;2.87;;;2.10;;
12110;SDS011;6119;52.372;8.990;2024-02-14T02:53:12;4.17;;;2.27;;
12110;SDS011;6119;52.372;8.990;2024-02-14T02:55:59;4.43;;;2.10;;
12110;SDS011;6119;52.372;8.990;2024-02-14T02:58:47;2.87;;;2.00;;
12110;SDS011;6119;52.372;8.990;2024-02-14T03:01:37;3.13;;;2.10;;
12110;SDS011;6119;52.372;8.990;2024-02-14T03:04:25;2.00;;;1.90;;
12110;SDS011;6119;52.372;8.990;2024-02-14T03:07:31;2.97;;;1.87;;
12110;SDS011;6119;52.372;8.990;2024-02-14T03:10:18;3.50;;;1.90;;
12110;SDS011;6119;52.372;8.990;2024-02-14T03:13:06;2.33;;;1.97;;
12110;SDS011;6119;52.372;8.990;2024-02-14T03:15:55;2.80;;;2.03;;
12110;SDS011;6119;52.372;8.990;2024-02-14T03:18:43;5.23;;;2.33;;
12110;SDS011;6119;52.372;8.990;2024-02-14T03:21:30;2.97;;;2.10;;
12110;SDS011;6119;52.372;8.990;2024-02-14T03:24:20;2.97;;;1.97;;
12110;SDS011;6119;52.372;8.990;2024-02-14T03:27:07;3.60;;;2.10;;
12110;SDS011;6119;52.372;8.990;2024-02-14T03:29:53;4.47;;;2.10;;
12110;SDS011;6119;52.372;8.990;2024-02-14T03:32:45;3.40;;;2.73;;
12110;SDS011;6119;52.372;8.990;2024-02-14T03:35:32;3.10;;;2.30;;
12110;SDS011;6119;52.372;8.990;2024-02-14T03:38:24;2.57;;;2.13;;
12110;SDS011;6119;52.372;8.990;2024-02-14T03:41:11;3.70;;;2.20;;
12110;SDS011;6119;52.372;8.990;2024-02-14T03:43:58;5.20;;;2.33;;
12110;SDS011;6119;52.372;8.990;2024-02-14T03:46:46;2.77;;;2.47;;
12110;SDS011;6119;52.372;8.990;2024-02-14T03:49:34;4.07;;;2.00;;
12110;SDS011;6119;52.372;8.990;2024-02-14T03:52:21;3.40;;;2.10;;
12110;SDS011;6119;52.372;8.990;2024-02-14T03:55:08;2.83;;;2.10;;
12110;SDS011;6119;52.372;8.990;2024-02-14T03:57:58;2.57;;;2.07;;
12110;SDS011;6119;52.372;8.990;2024-02-14T04:00:44;4.13;;;2.30;;
12110;SDS011;6119;52.372;8.990;2024-02-14T04:03:33;3.77;;;2.20;;
12110;SDS011;6119;52.372;8.990;2024-02-14T04:06:22;5.30;;;2.10;;
12110;SDS011;6119;52.372;8.990;2024-02-14T04:09:11;3.00;;;2.30;;
12110;SDS011;6119;52.372;8.990;2024-02-14T04:11:58;7.07;;;2.30;;
12110;SDS011;6119;52.372;8.990;2024-02-14T04:14:44;3.83;;;2.27;;
12110;SDS011;6119;52.372;8.990;2024-02-14T04:17:31;4.93;;;2.10;;
12110;SDS011;6119;52.372;8.990;2024-02-14T04:20:18;3.90;;;2.30;;
12110;SDS011;6119;52.372;8.990;2024-02-14T04:23:06;3.77;;;2.47;;
12110;SDS011;6119;52.372;8.990;2024-02-14T04:25:52;5.73;;;2.50;;
12110;SDS011;6119;52.372;8.990;2024-02-14T04:28:39;3.53;;;2.17;;
12110;SDS011;6119;52.372;8.990;2024-02-14T04:31:26;4.27;;;2.10;;
12110;SDS011;6119;52.372;8.990;2024-02-14T04:34:14;3.40;;;2.33;;
12110;SDS011;6119;52.372;8.990;2024-02-14T04:37:02;4.07;;;2.27;;
12110;SDS011;6119;52.372;8.990;2024-02-14T04:39:56;4.27;;;2.40;;
12110;SDS011;6119;52.372;8.990;2024-02-14T04:42:42;3.63;;;2.40;;
12110;SDS011;6119;52.372;8.990;2024-02-14T04:45:29;3.43;;;2.30;;
12110;SDS011;6119;52.372;8.990;2024-02-14T04:48:15;4.17;;;2.83;;
12110;SDS011;6119;52.372;8.990;2024-02-14T04:51:02;4.37;;;2.50;;
12110;SDS011;6119;52.372;8.990;2024-02-14T04:53:50;3.30;;;2.50;;
12110;SDS011;6119;52.372;8.990;2024-02-14T04:56:38;3.93;;;2.60;;
12110;SDS011;6119;52.372;8.990;2024-02-14T04:59:24;5.70;;;2.77;;
12110;SDS011;6119;52.372;8.990;2024-02-14T05:02:12;3.50;;;2.30;;
12110;SDS011;6119;52.372;8.990;2024-02-14T05:04:58;3.13;;;2.50;;
12110;SDS011;6119;52.372;8.990;2024-02-14T05:07:46;5.70;;;2.70;;
12110;SDS011;6119;52.372;8.990;2024-02-14T05:10:33;5.20;;;2.70;;
12110;SDS011;6119;52.372;8.990;2024-02-14T05:13:21;3.17;;;2.30;;
12110;SDS011;6119;52.372;8.990;2024-02-14T05:16:08;3.70;;;2.20;;
12110;SDS011;6119;52.372;8.990;2024-02-14T05:18:55;6.83;;;3.13;;
12110;SDS011;6119;52.372;8.990;2024-02-14T05:21:42;3.93;;;2.73;;
12110;SDS011;6119;52.372;8.990;2024-02-14T05:24:28;3.20;;;2.60;;
12110;SDS011;6119;52.372;8.990;2024-02-14T05:27:16;3.93;;;3.10;;
12110;SDS011;6119;52.372;8.990;2024-02-14T05:30:04;6.00;;;3.13;;
12110;SDS011;6119;52.372;8.990;2024-02-14T05:32:53;6.03;;;2.83;;
12110;SDS011;6119;52.372;8.990;2024-02-14T05:35:40;5.73;;;3.07;;
12110;SDS011;6119;52.372;8.990;2024-02-14T05:38:27;5.17;;;3.10;;
12110;SDS011;6119;52.372;8.990;2024-02-14T05:41:14;3.23;;;2.90;;
12110;SDS011;6119;52.372;8.990;2024-02-14T05:44:03;3.40;;;2.80;;
12110;SDS011;6119;52.372;8.990;2024-02-14T05:46:51;4.17;;;3.33;;
12110;SDS011;6119;52.372;8.990;2024-02-14T05:49:38;5.70;;;4.10;;
12110;SDS011;6119;52.372;8.990;2024-02-14T05:52:25;9.40;;;6.10;;
12110;SDS011;6119;52.372;8.990;2024-02-14T05:55:11;5.30;;;4.60;;
12110;SDS011;6119;52.372;8.990;2024-02-14T05:57:58;3.47;;;2.80;;
12110;SDS011;6119;52.372;8.990;2024-02-14T06:00:45;3.93;;;3.00;;
12110;SDS011;6119;52.372;8.990;2024-02-14T06:03:33;4.20;;;3.10;;
12110;SDS011;6119;52.372;8.990;2024-02-14T06:06:20;3.97;;;3.20;;
12110;SDS011;6119;52.372;8.990;2024-02-14T06:09:08;3.90;;;3.20;;
12110;SDS011;6119;52.372;8.990;2024-02-14T06:11:56;3.57;;;2.83;;
12110;SDS011;6119;52.372;8.990;2024-02-14T06:14:43;5.00;;;3.10;;
12110;SDS011;6119;52.372;8.990;2024-02-14T06:17:30;4.00;;;2.80;;
12110;SDS011;6119;52.372;8.990;2024-02-14T06:20:19;3.50;;;2.93;;
12110;SDS011;6119;52.372;8.990;2024-02-14T06:23:05;3.30;;;2.90;;
12110;SDS011;6119;52.372;8.990;2024-02-14T06:25:52;4.33;;;3.20;;
12110;SDS011;6119;52.372;8.990;2024-02-14T06:28:39;4.30;;;3.20;;
12110;SDS011;6119;52.372;8.990;2024-02-14T06:31:26;4.30;;;3.00;;
12110;SDS011;6119;52.372;8.990;2024-02-14T06:34:12;4.30;;;2.67;;
12110;SDS011;6119;52.372;8.990;2024-02-14T06:37:01;3.30;;;3.00;;
12110;SDS011;6119;52.372;8.990;2024-02-14T06:39:47;3.63;;;3.00;;
12110;SDS011;6119;52.372;8.990;2024-02-14T06:42:34;3.10;;;2.80;;
12110;SDS011;6119;52.372;8.990;2024-02-14T06:45:20;3.53;;;2.47;;
12110;SDS011;6119;52.372;8.990;2024-02-14T06:48:07;5.60;;;4.37;;
12110;SDS011;6119;52.372;8.990;2024-02-14T06:50:54;10.40;;;6.50;;
12110;SDS011;6119;52.372;8.990;2024-02-14T06:53:42;3.80;;;3.27;;
12110;SDS011;6119;52.372;8.990;2024-02-14T06:56:29;3.03;;;2.60;;
12110;SDS011;6119;52.372;8.990;2024-02-14T06:59:16;3.77;;;3.23;;
12110;SDS011;6119;52.372;8.990;2024-02-14T07:02:03;3.13;;;2.90;;
12110;SDS011;6119;52.372;8.990;2024-02-14T07:04:57;3.87;;;2.93;;
12110;SDS011;6119;52.372;8.990;2024-02-14T07:07:44;3.10;;;2.80;;
12110;SDS011;6119;52.372;8.990;2024-02-14T07:10:32;4.50;;;2.93;;
12110;SDS011;6119;52.372;8.990;2024-02-14T07:13:19;3.40;;;3.10;;
12110;SDS011;6119;52.372;8.990;2024-02-14T07:16:05;3.37;;;3.07;;
12110;SDS011;6119;52.372;8.990;2024-02-14T07:18:55;4.30;;;2.90;;
12110;SDS011;6119;52.372;8.990;2024-02-14T07:21:42;3.27;;;2.97;;
12110;SDS011;6119;52.372;8.990;2024-02-14T07:24:29;3.20;;;2.60;;
12110;SDS011;6119;52.372;8.990;2024-02-14T07:27:17;3.47;;;3.17;;
12110;SDS011;6119;52.372;8.990;2024-02-14T07:30:06;4.50;;;3.00;;
12110;SDS011;6119;52.372;8.990;2024-02-14T07:32:53;3.87;;;2.60;;
12110;SDS011;6119;52.372;8.990;2024-02-14T07:35:40;4.03;;;3.17;;
12110;SDS011;6119;52.372;8.990;2024-02-14T07:38:27;3.70;;;2.83;;
12110;SDS011;6119;52.372;8.990;2024-02-14T07:41:14;3.13;;;2.90;;
12110;SDS011;6119;52.372;8.990;2024-02-14T07:44:02;3.30;;;3.00;;
12110;SDS011;6119;52.372;8.990;2024-02-14T07:46:50;4.37;;;3.27;;
12110;SDS011;6119;52.372;8.990;2024-02-14T07:49:38;4.50;;;3.80;;
12110;SDS011;6119;52.372;8.990;2024-02-14T07:52:26;7.13;;;4.97;;
12110;SDS011;6119;52.372;8.990;2024-02-14T07:55:12;5.57;;;4.20;;
12110;SDS011;6119;52.372;8.990;2024-02-14T07:57:59;4.20;;;3.80;;
12110;SDS011;6119;52.372;8.990;2024-02-14T08:00:47;7.67;;;6.17;;
12110;SDS011;6119;52.372;8.990;2024-02-14T08:03:33;9.23;;;6.83;;
12110;SDS011;6119;52.372;8.990;2024-02-14T08:06:21;9.60;;;8.50;;
12110;SDS011;6119;52.372;8.990;2024-02-14T08:09:08;13.20;;;8.80;;
12110;SDS011;6119;52.372;8.990;2024-02-14T08:11:55;11.43;;;8.40;;
12110;SDS011;6119;52.372;8.990;2024-02-14T08:14:41;9.50;;;7.97;;
12110;SDS011;6119;52.372;8.990;2024-02-14T08:17:29;8.70;;;6.77;;
12110;SDS011;6119;52.372;8.990;2024-02-14T08:20:16;10.13;;;8.07;;
12110;SDS011;6119;52.372;8.990;2024-02-14T08:23:03;11.10;;;8.20;;
12110;SDS011;6119;52.372;8.990;2024-02-14T08:25:50;11.20;;;9.17;;
12110;SDS011;6119;52.372;8.990;2024-02-14T08:28:36;11.83;;;8.53;;
12110;SDS011;6119;52.372;8.990;2024-02-14T08:31:23;8.83;;;7.90;;
12110;SDS011;6119;52.372;8.990;2024-02-14T08:34:11;9.70;;;8.47;;
12110;SDS011;6119;52.372;8.990;2024-02-14T08:36:58;9.43;;;8.43;;
12110;SDS011;6119;52.372;8.990;2024-02-14T08:39:45;10.60;;;9.23;;
12110;SDS011;6119;52.372;8.990;2024-02-14T08:42:32;10.43;;;8.93;;
12110;SDS011;6119;52.372;8.990;2024-02-14T08:45:19;9.33;;;8.33;;
12110;SDS011;6119;52.372;8.990;2024-02-14T08:48:06;11.17;;;9.33;;
12110;SDS011;6119;52.372;8.990;2024-02-14T08:50:54;10.87;;;9.57;;
12110;SDS011;6119;52.372;8.990;2024-02-14T08:53:41;10.50;;;9.17;;
12110;SDS011;6119;52.372;8.990;2024-02-14T08:56:30;12.77;;;9.13;;
12110;SDS011;6119;52.372;8.990;2024-02-14T08:59:18;15.27;;;11.07;;
12110;SDS011;6119;52.372;8.990;2024-02-14T09:02:05;17.10;;;11.37;;
12110;SDS011;6119;52.372;8.990;2024-02-14T09:04:52;14.87;;;10.50;;
12110;SDS011;6119;52.372;8.990;2024-02-14T09:07:40;11.50;;;10.23;;
12110;SDS011;6119;52.372;8.990;2024-02-14T09:10:27;31.80;;;17.73;;
12110;SDS011;6119;52.372;8.990;2024-02-14T09:13:14;15.43;;;11.43;;
12110;SDS011;6119;52.372;8.990;2024-02-14T09:16:00;33.20;;;19.27;;
12110;SDS011;6119;52.372;8.990;2024-02-14T09:18:47;35.90;;;19.23;;
12110;SDS011;6119;52.372;8.990;2024-02-14T09:21:34;38.73;;;20.13;;
12110;SDS011;6119;52.372;8.990;2024-02-14T09:24:23;36.97;;;19.03;;
12110;SDS011;6119;52.372;8.990;2024-02-14T09:27:10;20.27;;;14.17;;
12110;SDS011;6119;52.372;8.990;2024-02-14T09:29:59;14.50;;;12.53;;
12110;SDS011;6119;52.372;8.990;2024-02-14T09:32:46;13.17;;;11.33;;
12110;SDS011;6119;52.372;8.990;2024-02-14T09:35:35;13.40;;;11.27;;
12110;SDS011;6119;52.372;8.990;2024-02-14T09:38:25;11.73;;;10.53;;
12110;SDS011;6119;52.372;8.990;2024-02-14T09:41:14;12.27;;;10.07;;
12110;SDS011;6119;52.372;8.990;2024-02-14T09:44:07;10.97;;;9.77;;
12110;SDS011;6119;52.372;8.990;2024-02-14T09:46:54;11.40;;;10.20;;
12110;SDS011;6119;52.372;8.990;2024-02-14T09:49:41;10.97;;;9.83;;
12110;SDS011;6119;52.372;8.990;2024-02-14T09:52:31;12.47;;;10.20;;
12110;SDS011;6119;52.372;8.990;2024-02-14T09:55:19;11.13;;;9.80;;
12110;SDS011;6119;52.372;8.990;2024-02-14T09:58:07;13.57;;;9.63;;
12110;SDS011;6119;52.372;8.990;2024-02-14T10:00:55;11.17;;;9.60;;
12110;SDS011;6119;52.372;8.990;2024-02-14T10:03:42;10.93;;;9.10;;
12110;SDS011;6119;52.372;8.990;2024-02-14T10:06:29;15.30;;;9.83;;
12110;SDS011;6119;52.372;8.990;2024-02-14T10:09:18;13.57;;;11.53;;
12110;SDS011;6119;52.372;8.990;2024-02-14T10:12:06;10.23;;;9.23;;
12110;SDS011;6119;52.372;8.990;2024-02-14T10:14:56;10.93;;;9.83;;
12110;SDS011;6119;52.372;8.990;2024-02-14T10:17:43;13.03;;;10.00;;
12110;SDS011;6119;52.372;8.990;2024-02-14T10:20:30;11.23;;;10.13;;
12110;SDS011;6119;52.372;8.990;2024-02-14T10:23:19;10.03;;;9.03;;
12110;SDS011;6119;52.372;8.990;2024-02-14T10:26:07;10.60;;;8.07;;
12110;SDS011;6119;52.372;8.990;2024-02-14T10:28:53;9.30;;;8.40;;
12110;SDS011;6119;52.372;8.990;2024-02-14T10:31:45;9.53;;;8.63;;
12110;SDS011;6119;52.372;8.990;2024-02-14T10:34:32;8.70;;;7.80;;
12110;SDS011;6119;52.372;8.990;2024-02-14T10:37:20;9.67;;;8.23;;
12110;SDS011;6119;52.372;8.990;2024-02-14T10:40:08;10.57;;;8.37;;
12110;SDS011;6119;52.372;8.990;2024-02-14T10:42:55;9.10;;;8.20;;
12110;SDS011;6119;52.372;8.990;2024-02-14T10:45:43;8.47;;;7.67;;
12110;SDS011;6119;52.372;8.990;2024-02-14T10:48:32;9.47;;;7.77;;
12110;SDS011;6119;52.372;8.990;2024-02-14T10:51:24;8.27;;;7.47;;
12110;SDS011;6119;52.372;8.990;2024-02-14T10:54:16;8.47;;;7.57;;
12110;SDS011;6119;52.372;8.990;2024-02-14T10:57:05;9.97;;;7.60;;
12110;SDS011;6119;52.372;8.990;2024-02-14T10:59:57;7.90;;;7.10;;
12110;SDS011;6119;52.372;8.990;2024-02-14T11:02:46;9.17;;;8.07;;
12110;SDS011;6119;52.372;8.990;2024-02-14T11:05:44;9.10;;;8.20;;
12110;SDS011;6119;52.372;8.990;2024-02-14T11:08:32;8.67;;;7.80;;
12110;SDS011;6119;52.372;8.990;2024-02-14T11:11:20;8.43;;;7.63;;
12110;SDS011;6119;52.372;8.990;2024-02-14T11:14:07;9.03;;;8.13;;
12110;SDS011;6119;52.372;8.990;2024-02-14T11:16:54;8.37;;;7.57;;
12110;SDS011;6119;52.372;8.990;2024-02-14T11:19:40;9.33;;;7.60;;
12110;SDS011;6119;52.372;8.990;2024-02-14T11:22:33;8.60;;;7.67;;
12110;SDS011;6119;52.372;8.990;2024-02-14T11:25:22;9.03;;;8.13;;
12110;SDS011;6119;52.372;8.990;2024-02-14T11:28:14;9.93;;;8.77;;
12110;SDS011;6119;52.372;8.990;2024-02-14T11:31:01;10.70;;;9.00;;
12110;SDS011;6119;52.372;8.990;2024-02-14T11:33:49;10.33;;;9.23;;
12110;SDS011;6119;52.372;8.990;2024-02-14T11:36:37;12.57;;;9.60;;
12110;SDS011;6119;52.372;8.990;2024-02-14T11:39:26;11.00;;;9.80;;
12110;SDS011;6119;52.372;8.990;2024-02-14T11:42:12;10.40;;;9.37;;
12110;SDS011;6119;52.372;8.990;2024-02-14T11:45:01;11.43;;;10.23;;
12110;SDS011;6119;52.372;8.990;2024-02-14T11:47:48;13.30;;;10.50;;
12110;SDS011;6119;52.372;8.990;2024-02-14T11:50:35;12.07;;;10.47;;
12110;SDS011;6119;52.372;8.990;2024-02-14T11:53:24;12.40;;;10.57;;
12110;SDS011;6119;52.372;8.990;2024-02-14T11:56:15;13.73;;;11.07;;
12110;SDS011;6119;52.372;8.990;2024-02-14T11:59:02;12.47;;;11.17;;
12110;SDS011;6119;52.372;8.990;2024-02-14T12:01:50;14.40;;;11.90;;
12110;SDS011;6119;52.372;8.990;2024-02-14T12:04:37;12.00;;;10.80;;
12110;SDS011;6119;52.372;8.990;2024-02-14T12:07:23;13.40;;;11.83;;
12110;SDS011;6119;52.372;8.990;2024-02-14T12:10:11;11.90;;;10.70;;
12110;SDS011;6119;52.372;8.990;2024-02-14T12:12:59;11.50;;;10.13;;
12110;SDS011;6119;52.372;8.990;2024-02-14T12:15:52;12.10;;;10.80;;
12110;SDS011;6119;52.372;8.990;2024-02-14T12:18:40;12.23;;;10.93;;
12110;SDS011;6119;52.372;8.990;2024-02-14T12:21:27;10.43;;;9.33;;
12110;SDS011;6119;52.372;8.990;2024-02-14T12:24:19;12.03;;;10.00;;
12110;SDS011;6119;52.372;8.990;2024-02-14T12:27:08;14.47;;;10.53;;
12110;SDS011;6119;52.372;8.990;2024-02-14T12:29:56;17.57;;;12.80;;
12110;SDS011;6119;52.372;8.990;2024-02-14T12:32:43;13.50;;;11.27;;
12110;SDS011;6119;52.372;8.990;2024-02-14T12:35:30;12.23;;;10.87;;
12110;SDS011;6119;52.372;8.990;2024-02-14T12:38:17;17.93;;;11.90;;
12110;SDS011;6119;52.372;8.990;2024-02-14T12:41:04;13.13;;;9.57;;
12110;SDS011;6119;52.372;8.990;2024-02-14T12:43:51;14.20;;;10.80;;
12110;SDS011;6119;52.372;8.990;2024-02-14T12:46:40;20.83;;;13.00;;
12110;SDS011;6119;52.372;8.990;2024-02-14T12:49:27;20.53;;;13.37;;
12110;SDS011;6119;52.372;8.990;2024-02-14T12:52:14;14.03;;;10.20;;
12110;SDS011;6119;52.372;8.990;2024-02-14T12:55:01;13.20;;;10.87;;
12110;SDS011;6119;52.372;8.990;2024-02-14T12:57:49;18.97;;;12.23;;
12110;SDS011;6119;52.372;8.990;2024-02-14T13:00:36;21.00;;;13.60;;
12110;SDS011;6119;52.372;8.990;2024-02-14T13:03:25;9.60;;;8.60;;
12110;SDS011;6119;52.372;8.990;2024-02-14T13:06:12;11.93;;;8.20;;
12110;SDS011;6119;52.372;8.990;2024-02-14T13:09:01;9.40;;;8.13;;
12110;SDS011;6119;52.372;8.990;2024-02-14T13:11:50;10.57;;;9.47;;
12110;SDS011;6119;52.372;8.990;2024-02-14T13:14:37;7.90;;;7.10;;
12110;SDS011;6119;52.372;8.990;2024-02-14T13:17:26;7.87;;;7.17;;
12110;SDS011;6119;52.372;8.990;2024-02-14T13:20:16;7.70;;;6.80;;
12110;SDS011;6119;52.372;8.990;2024-02-14T13:23:03;8.20;;;6.60;;
12110;SDS011;6119;52.372;8.990;2024-02-14T13:25:51;7.67;;;6.33;;
12110;SDS011;6119;52.372;8.990;2024-02-14T13:28:38;7.27;;;6.57;;
12110;SDS011;6119;52.372;8.990;2024-02-14T13:31:25;9.97;;;6.57;;
12110;SDS011;6119;52.372;8.990;2024-02-14T13:34:12;7.57;;;6.80;;
12110;SDS011;6119;52.372;8.990;2024-02-14T13:37:01;7.30;;;6.60;;
12110;SDS011;6119;52.372;8.990;2024-02-14T13:39:48;6.83;;;6.13;;
12110;SDS011;6119;52.372;8.990;2024-02-14T13:42:35;6.37;;;5.77;;
12110;SDS011;6119;52.372;8.990;2024-02-14T13:45:23;6.50;;;5.90;;
12110;SDS011;6119;52.372;8.990;2024-02-14T13:48:11;6.00;;;5.47;;
12110;SDS011;6119;52.372;8.990;2024-02-14T13:50:58;5.80;;;5.00;;
12110;SDS011;6119;52.372;8.990;2024-02-14T13:53:47;5.27;;;4.77;;
12110;SDS011;6119;52.372;8.990;2024-02-14T13:56:33;5.57;;;5.07;;
12110;SDS011;6119;52.372;8.990;2024-02-14T13:59:20;5.50;;;4.93;;
12110;SDS011;6119;52.372;8.990;2024-02-14T14:02:07;5.20;;;4.70;;
12110;SDS011;6119;52.372;8.990;2024-02-14T14:04:54;5.50;;;5.00;;
12110;SDS011;6119;52.372;8.990;2024-02-14T14:07:41;5.60;;;4.83;;
12110;SDS011;6119;52.372;8.990;2024-02-14T14:10:43;5.70;;;5.10;;
12110;SDS011;6119;52.372;8.990;2024-02-14T14:13:30;7.13;;;6.43;;
12110;SDS011;6119;52.372;8.990;2024-02-14T14:16:18;8.03;;;7.23;;
12110;SDS011;6119;52.372;8.990;2024-02-14T14:19:06;10.20;;;7.37;;
12110;SDS011;6119;52.372;8.990;2024-02-14T14:21:53;10.53;;;8.03;;
12110;SDS011;6119;52.372;8.990;2024-02-14T14:24:40;23.77;;;12.90;;
12110;SDS011;6119;52.372;8.990;2024-02-14T14:27:28;22.80;;;13.20;;
12110;SDS011;6119;52.372;8.990;2024-02-14T14:30:15;28.43;;;15.07;;
12110;SDS011;6119;52.372;8.990;2024-02-14T14:33:02;62.17;;;27.33;;
12110;SDS011;6119;52.372;8.990;2024-02-14T14:35:50;16.87;;;10.20;;
12110;SDS011;6119;52.372;8.990;2024-02-14T14:38:38;14.23;;;8.37;;
12110;SDS011;6119;52.372;8.990;2024-02-14T14:41:25;12.30;;;7.43;;
12110;SDS011;6119;52.372;8.990;2024-02-14T14:44:15;11.10;;;7.90;;
12110;SDS011;6119;52.372;8.990;2024-02-14T14:47:02;11.73;;;8.33;;
12110;SDS011;6119;52.372;8.990;2024-02-14T14:49:49;10.83;;;8.17;;
12110;SDS011;6119;52.372;8.990;2024-02-14T14:52:36;11.80;;;7.97;;
12110;SDS011;6119;52.372;8.990;2024-02-14T14:55:23;8.73;;;7.93;;
12110;SDS011;6119;52.372;8.990;2024-02-14T14:58:12;11.57;;;8.27;;
12110;SDS011;6119;52.372;8.990;2024-02-14T15:01:00;12.83;;;8.47;;
12110;SDS011;6119;52.372;8.990;2024-02-14T15:03:49;15.53;;;12.40;;
12110;SDS011;6119;52.372;8.990;2024-02-14T15:06:38;14.57;;;12.40;;
12110;SDS011;6119;52.372;8.990;2024-02-14T15:09:26;13.07;;;11.73;;
12110;SDS011;6119;52.372;8.990;2024-02-14T15:12:15;15.03;;;12.60;;
12110;SDS011;6119;52.372;8.990;2024-02-14T15:15:02;14.83;;;10.57;;
12110;SDS011;6119;52.372;8.990;2024-02-14T15:17:50;16.80;;;11.37;;
12110;SDS011;6119;52.372;8.990;2024-02-14T15:20:37;13.00;;;10.30;;
12110;SDS011;6119;52.372;8.990;2024-02-14T15:23:24;12.87;;;10.17;;
12110;SDS011;6119;52.372;8.990;2024-02-14T15:26:10;13.50;;;10.33;;
12110;SDS011;6119;52.372;8.990;2024-02-14T15:29:00;12.83;;;10.57;;
12110;SDS011;6119;52.372;8.990;2024-02-14T15:32:01;12.37;;;10.03;;
12110;SDS011;6119;52.372;8.990;2024-02-14T15:35:07;11.83;;;9.70;;
12110;SDS011;6119;52.372;8.990;2024-02-14T15:37:54;10.97;;;9.73;;
12110;SDS011;6119;52.372;8.990;2024-02-14T15:40:42;12.40;;;9.67;;
12110;SDS011;6119;52.372;8.990;2024-02-14T15:43:30;12.50;;;8.93;;
12110;SDS011;6119;52.372;8.990;2024-02-14T15:46:18;11.20;;;9.17;;
12110;SDS011;6119;52.372;8.990;2024-02-14T15:49:05;10.00;;;7.57;;
12110;SDS011;6119;52.372;8.990;2024-02-14T15:51:58;9.77;;;7.73;;
12110;SDS011;6119;52.372;8.990;2024-02-14T15:54:45;8.70;;;7.27;;
12110;SDS011;6119;52.372;8.990;2024-02-14T15:57:32;8.57;;;7.20;;
12110;SDS011;6119;52.372;8.990;2024-02-14T16:00:20;9.87;;;7.93;;
12110;SDS011;6119;52.372;8.990;2024-02-14T16:03:06;8.77;;;6.63;;
12110;SDS011;6119;52.372;8.990;2024-02-14T16:05:53;8.53;;;7.17;;
12110;SDS011;6119;52.372;8.990;2024-02-14T16:08:42;9.37;;;6.97;;
12110;SDS011;6119;52.372;8.990;2024-02-14T16:11:29;7.70;;;6.73;;
12110;SDS011;6119;52.372;8.990;2024-02-14T16:14:16;10.70;;;7.10;;
12110;SDS011;6119;52.372;8.990;2024-02-14T16:17:04;8.17;;;7.13;;
12110;SDS011;6119;52.372;8.990;2024-02-14T16:19:51;7.60;;;6.83;;
12110;SDS011;6119;52.372;8.990;2024-02-14T16:22:37;7.70;;;7.00;;
12110;SDS011;6119;52.372;8.990;2024-02-14T16:25:26;8.33;;;6.60;;
12110;SDS011;6119;52.372;8.990;2024-02-14T16:28:16;7.27;;;6.40;;
12110;SDS011;6119;52.372;8.990;2024-02-14T16:31:03;6.80;;;6.10;;
12110;SDS011;6119;52.372;8.990;2024-02-14T16:33:50;6.53;;;5.93;;
12110;SDS011;6119;52.372;8.990;2024-02-14T16:36:37;8.13;;;5.43;;
12110;SDS011;6119;52.372;8.990;2024-02-14T16:39:24;7.37;;;5.63;;
12110;SDS011;6119;52.372;8.990;2024-02-14T16:42:27;6.23;;;5.13;;
12110;SDS011;6119;52.372;8.990;2024-02-14T16:45:14;4.83;;;4.43;;
12110;SDS011;6119;52.372;8.990;2024-02-14T16:48:03;5.40;;;4.90;;
12110;SDS011;6119;52.372;8.990;2024-02-14T16:50:51;5.70;;;4.93;;
12110;SDS011;6119;52.372;8.990;2024-02-14T16:53:38;7.63;;;4.07;;
12110;SDS011;6119;52.372;8.990;2024-02-14T16:56:25;21.57;;;11.07;;
12110;SDS011;6119;52.372;8.990;2024-02-14T16:59:18;9.93;;;6.60;;